sensor_id;sensor_type;location;lat;lon;timestamp;P1;durP1;ratioP1;P2;durP2;ratioP2
32734;SDS011;19112;51.076;3.706;2023-06-01T00:02:07;34.00;;;14.55;;
32734;SDS011;19112;51.076;3.706;2023-06-01T00:04:33;29.88;;;14.85;;
32734;SDS011;19112;51.076;3.706;2023-06-01T00:06:59;33.13;;;13.90;;
32734;SDS011;19112;51.076;3.706;2023-06-01T00:09:26;33.05;;;16.27;;
32734;SDS011;19112;51.076;3.706;2023-06-01T00:11:52;29.98;;;14.77;;
32734;SDS011;19112;51.076;3.706;2023-06-01T00:14:18;31.90;;;14.80;;
32734;SDS011;19112;51.076;3.706;2023-06-01T00:16:44;35.90;;;16.30;;
32734;SDS011;19112;51.076;3.706;2023-06-01T00:19:10;33.63;;;14.65;;
32734;SDS011;19112;51.076;3.706;2023-06-01T00:21:36;34.58;;;15.35;;
32734;SDS011;19112;51.076;3.706;2023-06-01T00:24:02;30.95;;;14.77;;
32734;SDS011;19112;51.076;3.706;2023-06-01T00:26:28;33.95;;;16.17;;
32734;SDS011;19112;51.076;3.706;2023-06-01T00:28:58;37.63;;;15.30;;
32734;SDS011;19112;51.076;3.706;2023-06-01T00:31:24;32.47;;;13.75;;
32734;SDS011;19112;51.076;3.706;2023-06-01T00:33:51;35.60;;;13.73;;
32734;SDS011;19112;51.076;3.706;2023-06-01T00:36:17;31.05;;;12.63;;
32734;SDS011;19112;51.076;3.706;2023-06-01T00:38:44;33.00;;;12.60;;
32734;SDS011;19112;51.076;3.706;2023-06-01T00:41:10;30.60;;;13.40;;
32734;SDS011;19112;51.076;3.706;2023-06-01T00:43:37;32.72;;;13.27;;
32734;SDS011;19112;51.076;3.706;2023-06-01T00:46:03;31.30;;;14.50;;
32734;SDS011;19112;51.076;3.706;2023-06-01T00:48:30;30.63;;;14.27;;
32734;SDS011;19112;51.076;3.706;2023-06-01T00:50:56;30.65;;;11.77;;
32734;SDS011;19112;51.076;3.706;2023-06-01T00:53:24;29.67;;;12.77;;
32734;SDS011;19112;51.076;3.706;2023-06-01T00:55:50;29.25;;;13.23;;
32734;SDS011;19112;51.076;3.706;2023-06-01T00:58:17;31.50;;;13.40;;
32734;SDS011;19112;51.076;3.706;2023-06-01T01:00:43;31.45;;;12.60;;
32734;SDS011;19112;51.076;3.706;2023-06-01T01:03:09;30.95;;;13.52;;
32734;SDS011;19112;51.076;3.706;2023-06-01T01:05:38;31.80;;;13.60;;
32734;SDS011;19112;51.076;3.706;2023-06-01T01:10:58;33.35;;;13.75;;
32734;SDS011;19112;51.076;3.706;2023-06-01T01:14:06;28.38;;;13.55;;
32734;SDS011;19112;51.076;3.706;2023-06-01T01:17:02;32.05;;;12.52;;
32734;SDS011;19112;51.076;3.706;2023-06-01T01:28:37;30.75;;;11.95;;
32734;SDS011;19112;51.076;3.706;2023-06-01T01:31:16;30.58;;;12.02;;
32734;SDS011;19112;51.076;3.706;2023-06-01T01:33:48;35.78;;;13.82;;
32734;SDS011;19112;51.076;3.706;2023-06-01T01:36:18;30.25;;;11.93;;
32734;SDS011;19112;51.076;3.706;2023-06-01T01:38:45;31.33;;;12.98;;
32734;SDS011;19112;51.076;3.706;2023-06-01T01:41:11;32.45;;;12.93;;
32734;SDS011;19112;51.076;3.706;2023-06-01T01:43:37;29.73;;;12.13;;
32734;SDS011;19112;51.076;3.706;2023-06-01T01:46:07;35.30;;;13.18;;
32734;SDS011;19112;51.076;3.706;2023-06-01T01:51:29;31.17;;;12.73;;
32734;SDS011;19112;51.076;3.706;2023-06-01T01:54:31;31.50;;;13.07;;
32734;SDS011;19112;51.076;3.706;2023-06-01T01:57:01;29.13;;;12.20;;
32734;SDS011;19112;51.076;3.706;2023-06-01T01:59:29;31.98;;;13.80;;
32734;SDS011;19112;51.076;3.706;2023-06-01T02:01:56;35.25;;;13.85;;
32734;SDS011;19112;51.076;3.706;2023-06-01T02:04:23;32.58;;;13.48;;
32734;SDS011;19112;51.076;3.706;2023-06-01T02:06:49;33.72;;;14.77;;
32734;SDS011;19112;51.076;3.706;2023-06-01T02:09:15;32.75;;;14.52;;
32734;SDS011;19112;51.076;3.706;2023-06-01T02:11:41;35.47;;;14.95;;
32734;SDS011;19112;51.076;3.706;2023-06-01T02:14:06;31.83;;;14.10;;
32734;SDS011;19112;51.076;3.706;2023-06-01T02:16:32;53.13;;;16.13;;
32734;SDS011;19112;51.076;3.706;2023-06-01T02:18:58;35.50;;;15.20;;
32734;SDS011;19112;51.076;3.706;2023-06-01T02:21:24;37.08;;;15.70;;
32734;SDS011;19112;51.076;3.706;2023-06-01T02:23:51;34.67;;;15.38;;
32734;SDS011;19112;51.076;3.706;2023-06-01T02:26:17;36.75;;;15.48;;
32734;SDS011;19112;51.076;3.706;2023-06-01T02:28:43;40.92;;;17.20;;
32734;SDS011;19112;51.076;3.706;2023-06-01T02:31:09;39.55;;;17.02;;
32734;SDS011;19112;51.076;3.706;2023-06-01T02:33:35;39.33;;;16.70;;
32734;SDS011;19112;51.076;3.706;2023-06-01T02:36:03;42.75;;;17.08;;
32734;SDS011;19112;51.076;3.706;2023-06-01T02:38:29;38.15;;;16.88;;
32734;SDS011;19112;51.076;3.706;2023-06-01T02:40:55;38.63;;;16.40;;
32734;SDS011;19112;51.076;3.706;2023-06-01T02:43:20;40.20;;;19.08;;
32734;SDS011;19112;51.076;3.706;2023-06-01T02:45:46;41.30;;;17.40;;
32734;SDS011;19112;51.076;3.706;2023-06-01T02:48:12;36.97;;;17.17;;
32734;SDS011;19112;51.076;3.706;2023-06-01T02:50:39;40.72;;;19.38;;
32734;SDS011;19112;51.076;3.706;2023-06-01T02:53:05;40.55;;;17.73;;
32734;SDS011;19112;51.076;3.706;2023-06-01T02:55:31;37.75;;;19.10;;
32734;SDS011;19112;51.076;3.706;2023-06-01T02:57:57;39.83;;;18.58;;
32734;SDS011;19112;51.076;3.706;2023-06-01T03:00:22;39.25;;;17.98;;
32734;SDS011;19112;51.076;3.706;2023-06-01T03:02:48;38.53;;;17.92;;
32734;SDS011;19112;51.076;3.706;2023-06-01T03:05:14;40.95;;;18.73;;
32734;SDS011;19112;51.076;3.706;2023-06-01T03:07:42;41.70;;;18.70;;
32734;SDS011;19112;51.076;3.706;2023-06-01T03:10:09;42.95;;;19.65;;
32734;SDS011;19112;51.076;3.706;2023-06-01T03:12:35;41.53;;;19.15;;
32734;SDS011;19112;51.076;3.706;2023-06-01T03:15:02;47.88;;;21.83;;
32734;SDS011;19112;51.076;3.706;2023-06-01T03:17:30;47.88;;;20.88;;
32734;SDS011;19112;51.076;3.706;2023-06-01T03:19:57;42.88;;;20.15;;
32734;SDS011;19112;51.076;3.706;2023-06-01T03:22:23;48.83;;;20.42;;
32734;SDS011;19112;51.076;3.706;2023-06-01T03:24:49;48.55;;;23.80;;
32734;SDS011;19112;51.076;3.706;2023-06-01T03:27:16;48.03;;;22.20;;
32734;SDS011;19112;51.076;3.706;2023-06-01T03:29:42;45.00;;;21.95;;
32734;SDS011;19112;51.076;3.706;2023-06-01T03:32:08;45.75;;;20.30;;
32734;SDS011;19112;51.076;3.706;2023-06-01T03:34:34;47.17;;;20.48;;
32734;SDS011;19112;51.076;3.706;2023-06-01T03:37:01;47.33;;;21.38;;
32734;SDS011;19112;51.076;3.706;2023-06-01T03:39:29;44.65;;;21.52;;
32734;SDS011;19112;51.076;3.706;2023-06-01T03:41:59;45.28;;;21.45;;
32734;SDS011;19112;51.076;3.706;2023-06-01T03:44:25;41.80;;;18.17;;
32734;SDS011;19112;51.076;3.706;2023-06-01T03:46:51;40.28;;;18.27;;
32734;SDS011;19112;51.076;3.706;2023-06-01T03:49:17;40.65;;;18.95;;
32734;SDS011;19112;51.076;3.706;2023-06-01T03:51:43;47.72;;;22.13;;
32734;SDS011;19112;51.076;3.706;2023-06-01T03:54:10;47.65;;;22.88;;
32734;SDS011;19112;51.076;3.706;2023-06-01T03:56:37;55.65;;;27.00;;
32734;SDS011;19112;51.076;3.706;2023-06-01T03:59:03;60.90;;;28.95;;
32734;SDS011;19112;51.076;3.706;2023-06-01T04:01:29;53.05;;;23.98;;
32734;SDS011;19112;51.076;3.706;2023-06-01T04:03:55;44.95;;;21.77;;
32734;SDS011;19112;51.076;3.706;2023-06-01T04:06:22;46.92;;;22.05;;
32734;SDS011;19112;51.076;3.706;2023-06-01T04:08:49;44.35;;;22.40;;
32734;SDS011;19112;51.076;3.706;2023-06-01T04:11:20;51.25;;;23.58;;
32734;SDS011;19112;51.076;3.706;2023-06-01T04:13:50;48.10;;;21.48;;
32734;SDS011;19112;51.076;3.706;2023-06-01T04:16:15;40.05;;;20.10;;
32734;SDS011;19112;51.076;3.706;2023-06-01T04:18:41;41.05;;;17.92;;
32734;SDS011;19112;51.076;3.706;2023-06-01T04:21:07;36.70;;;16.85;;
32734;SDS011;19112;51.076;3.706;2023-06-01T04:23:34;44.88;;;17.80;;
32734;SDS011;19112;51.076;3.706;2023-06-01T04:26:02;46.13;;;20.77;;
32734;SDS011;19112;51.076;3.706;2023-06-01T04:28:30;41.30;;;20.20;;
32734;SDS011;19112;51.076;3.706;2023-06-01T04:30:58;41.30;;;19.65;;
32734;SDS011;19112;51.076;3.706;2023-06-01T04:33:24;42.97;;;19.55;;
32734;SDS011;19112;51.076;3.706;2023-06-01T04:35:53;47.33;;;19.92;;
32734;SDS011;19112;51.076;3.706;2023-06-01T04:38:19;44.47;;;20.52;;
32734;SDS011;19112;51.076;3.706;2023-06-01T04:40:46;43.05;;;19.63;;
32734;SDS011;19112;51.076;3.706;2023-06-01T04:43:12;37.13;;;19.13;;
32734;SDS011;19112;51.076;3.706;2023-06-01T04:45:44;42.30;;;19.88;;
32734;SDS011;19112;51.076;3.706;2023-06-01T04:48:11;36.35;;;17.77;;
32734;SDS011;19112;51.076;3.706;2023-06-01T04:50:37;35.65;;;17.77;;
32734;SDS011;19112;51.076;3.706;2023-06-01T04:53:03;38.72;;;19.65;;
32734;SDS011;19112;51.076;3.706;2023-06-01T04:55:30;37.05;;;18.05;;
32734;SDS011;19112;51.076;3.706;2023-06-01T04:57:56;41.28;;;19.85;;
32734;SDS011;19112;51.076;3.706;2023-06-01T05:00:23;36.75;;;17.67;;
32734;SDS011;19112;51.076;3.706;2023-06-01T05:02:48;43.13;;;20.92;;
32734;SDS011;19112;51.076;3.706;2023-06-01T05:05:15;47.33;;;24.05;;
32734;SDS011;19112;51.076;3.706;2023-06-01T05:07:42;50.75;;;26.15;;
32734;SDS011;19112;51.076;3.706;2023-06-01T05:10:09;49.67;;;25.17;;
32734;SDS011;19112;51.076;3.706;2023-06-01T05:12:37;54.88;;;28.75;;
32734;SDS011;19112;51.076;3.706;2023-06-01T05:15:05;47.63;;;25.67;;
32734;SDS011;19112;51.076;3.706;2023-06-01T05:17:33;47.58;;;25.02;;
32734;SDS011;19112;51.076;3.706;2023-06-01T05:19:59;45.55;;;22.88;;
32734;SDS011;19112;51.076;3.706;2023-06-01T05:22:26;38.42;;;19.52;;
32734;SDS011;19112;51.076;3.706;2023-06-01T05:24:52;41.00;;;20.80;;
32734;SDS011;19112;51.076;3.706;2023-06-01T05:27:18;47.85;;;24.73;;
32734;SDS011;19112;51.076;3.706;2023-06-01T05:29:43;56.28;;;29.30;;
32734;SDS011;19112;51.076;3.706;2023-06-01T05:32:09;59.55;;;31.33;;
32734;SDS011;19112;51.076;3.706;2023-06-01T05:34:35;61.50;;;33.42;;
32734;SDS011;19112;51.076;3.706;2023-06-01T05:37:01;72.20;;;38.42;;
32734;SDS011;19112;51.076;3.706;2023-06-01T05:39:27;68.72;;;38.35;;
32734;SDS011;19112;51.076;3.706;2023-06-01T05:41:54;70.47;;;40.30;;
32734;SDS011;19112;51.076;3.706;2023-06-01T05:44:20;71.90;;;40.80;;
32734;SDS011;19112;51.076;3.706;2023-06-01T05:46:47;62.67;;;33.97;;
32734;SDS011;19112;51.076;3.706;2023-06-01T05:49:14;57.80;;;35.55;;
32734;SDS011;19112;51.076;3.706;2023-06-01T05:51:40;61.05;;;30.33;;
32734;SDS011;19112;51.076;3.706;2023-06-01T05:54:08;47.58;;;25.13;;
32734;SDS011;19112;51.076;3.706;2023-06-01T05:56:34;62.28;;;34.40;;
32734;SDS011;19112;51.076;3.706;2023-06-01T05:59:05;60.63;;;34.58;;
32734;SDS011;19112;51.076;3.706;2023-06-01T06:01:31;65.32;;;36.30;;
32734;SDS011;19112;51.076;3.706;2023-06-01T06:03:58;62.13;;;34.00;;
32734;SDS011;19112;51.076;3.706;2023-06-01T06:06:25;62.05;;;33.20;;
32734;SDS011;19112;51.076;3.706;2023-06-01T06:08:51;55.28;;;30.20;;
32734;SDS011;19112;51.076;3.706;2023-06-01T06:11:17;53.15;;;27.88;;
32734;SDS011;19112;51.076;3.706;2023-06-01T06:13:43;50.03;;;26.27;;
32734;SDS011;19112;51.076;3.706;2023-06-01T06:16:09;58.78;;;31.85;;
32734;SDS011;19112;51.076;3.706;2023-06-01T06:18:35;60.50;;;32.30;;
32734;SDS011;19112;51.076;3.706;2023-06-01T06:21:01;61.15;;;35.90;;
32734;SDS011;19112;51.076;3.706;2023-06-01T06:23:27;51.50;;;29.00;;
32734;SDS011;19112;51.076;3.706;2023-06-01T06:25:55;43.83;;;23.92;;
32734;SDS011;19112;51.076;3.706;2023-06-01T06:28:21;39.78;;;21.20;;
32734;SDS011;19112;51.076;3.706;2023-06-01T06:30:46;43.08;;;21.30;;
32734;SDS011;19112;51.076;3.706;2023-06-01T06:33:12;39.75;;;22.83;;
32734;SDS011;19112;51.076;3.706;2023-06-01T06:35:38;44.38;;;24.33;;
32734;SDS011;19112;51.076;3.706;2023-06-01T06:38:06;51.85;;;28.33;;
32734;SDS011;19112;51.076;3.706;2023-06-01T06:40:33;47.25;;;28.63;;
32734;SDS011;19112;51.076;3.706;2023-06-01T06:42:59;54.58;;;28.73;;
32734;SDS011;19112;51.076;3.706;2023-06-01T06:45:25;47.90;;;28.50;;
32734;SDS011;19112;51.076;3.706;2023-06-01T06:47:51;49.97;;;25.92;;
32734;SDS011;19112;51.076;3.706;2023-06-01T06:50:16;52.15;;;28.85;;
32734;SDS011;19112;51.076;3.706;2023-06-01T06:52:42;50.03;;;25.90;;
32734;SDS011;19112;51.076;3.706;2023-06-01T06:55:08;44.53;;;24.17;;
32734;SDS011;19112;51.076;3.706;2023-06-01T06:57:34;47.25;;;25.20;;
32734;SDS011;19112;51.076;3.706;2023-06-01T07:00:00;54.30;;;27.73;;
32734;SDS011;19112;51.076;3.706;2023-06-01T07:02:29;41.72;;;21.30;;
32734;SDS011;19112;51.076;3.706;2023-06-01T07:04:56;35.78;;;17.88;;
32734;SDS011;19112;51.076;3.706;2023-06-01T07:07:22;32.38;;;15.70;;
32734;SDS011;19112;51.076;3.706;2023-06-01T07:09:47;43.80;;;20.63;;
32734;SDS011;19112;51.076;3.706;2023-06-01T07:12:13;46.65;;;20.83;;
32734;SDS011;19112;51.076;3.706;2023-06-01T07:14:39;48.53;;;22.92;;
32734;SDS011;19112;51.076;3.706;2023-06-01T07:17:05;42.00;;;20.88;;
32734;SDS011;19112;51.076;3.706;2023-06-01T07:19:31;42.22;;;20.45;;
32734;SDS011;19112;51.076;3.706;2023-06-01T07:22:01;55.15;;;24.63;;
32734;SDS011;19112;51.076;3.706;2023-06-01T07:24:27;43.28;;;20.63;;
32734;SDS011;19112;51.076;3.706;2023-06-01T07:26:53;38.88;;;21.02;;
32734;SDS011;19112;51.076;3.706;2023-06-01T07:29:20;39.38;;;19.95;;
32734;SDS011;19112;51.076;3.706;2023-06-01T07:31:47;26.55;;;13.63;;
32734;SDS011;19112;51.076;3.706;2023-06-01T07:34:15;35.63;;;14.80;;
32734;SDS011;19112;51.076;3.706;2023-06-01T07:36:41;39.40;;;18.95;;
32734;SDS011;19112;51.076;3.706;2023-06-01T07:39:06;42.13;;;21.25;;
32734;SDS011;19112;51.076;3.706;2023-06-01T07:41:34;40.58;;;18.58;;
32734;SDS011;19112;51.076;3.706;2023-06-01T07:44:00;31.75;;;12.45;;
32734;SDS011;19112;51.076;3.706;2023-06-01T07:46:26;41.85;;;20.40;;
32734;SDS011;19112;51.076;3.706;2023-06-01T07:48:52;39.50;;;20.63;;
32734;SDS011;19112;51.076;3.706;2023-06-01T07:51:18;35.80;;;16.67;;
32734;SDS011;19112;51.076;3.706;2023-06-01T07:53:44;42.90;;;21.23;;
32734;SDS011;19112;51.076;3.706;2023-06-01T07:56:10;44.70;;;21.00;;
32734;SDS011;19112;51.076;3.706;2023-06-01T07:58:36;40.53;;;19.45;;
32734;SDS011;19112;51.076;3.706;2023-06-01T08:01:03;39.97;;;18.35;;
32734;SDS011;19112;51.076;3.706;2023-06-01T08:03:30;38.25;;;18.55;;
32734;SDS011;19112;51.076;3.706;2023-06-01T08:05:58;41.05;;;18.83;;
32734;SDS011;19112;51.076;3.706;2023-06-01T08:08:27;44.13;;;18.63;;
32734;SDS011;19112;51.076;3.706;2023-06-01T08:10:53;36.40;;;14.77;;
32734;SDS011;19112;51.076;3.706;2023-06-01T08:13:19;34.10;;;14.10;;
32734;SDS011;19112;51.076;3.706;2023-06-01T08:15:45;36.05;;;17.45;;
32734;SDS011;19112;51.076;3.706;2023-06-01T08:18:14;30.17;;;13.45;;
32734;SDS011;19112;51.076;3.706;2023-06-01T08:20:40;32.95;;;13.77;;
32734;SDS011;19112;51.076;3.706;2023-06-01T08:23:07;31.73;;;14.80;;
32734;SDS011;19112;51.076;3.706;2023-06-01T08:25:33;43.53;;;16.40;;
32734;SDS011;19112;51.076;3.706;2023-06-01T08:27:59;35.25;;;16.10;;
32734;SDS011;19112;51.076;3.706;2023-06-01T08:30:25;35.47;;;14.07;;
32734;SDS011;19112;51.076;3.706;2023-06-01T08:32:51;28.65;;;11.65;;
32734;SDS011;19112;51.076;3.706;2023-06-01T08:35:17;28.08;;;12.57;;
32734;SDS011;19112;51.076;3.706;2023-06-01T08:37:44;33.58;;;13.45;;
32734;SDS011;19112;51.076;3.706;2023-06-01T08:40:12;27.10;;;11.65;;
32734;SDS011;19112;51.076;3.706;2023-06-01T08:45:34;26.02;;;11.95;;
32734;SDS011;19112;51.076;3.706;2023-06-01T08:48:02;27.30;;;11.50;;
32734;SDS011;19112;51.076;3.706;2023-06-01T08:50:33;36.80;;;13.77;;
32734;SDS011;19112;51.076;3.706;2023-06-01T08:53:00;29.85;;;13.48;;
32734;SDS011;19112;51.076;3.706;2023-06-01T08:55:26;30.48;;;13.80;;
32734;SDS011;19112;51.076;3.706;2023-06-01T08:57:53;30.95;;;13.95;;
32734;SDS011;19112;51.076;3.706;2023-06-01T09:00:21;28.92;;;13.27;;
32734;SDS011;19112;51.076;3.706;2023-06-01T09:02:49;37.28;;;16.52;;
32734;SDS011;19112;51.076;3.706;2023-06-01T09:05:14;36.92;;;18.00;;
32734;SDS011;19112;51.076;3.706;2023-06-01T09:07:42;36.35;;;16.30;;
32734;SDS011;19112;51.076;3.706;2023-06-01T09:10:08;37.10;;;15.65;;
32734;SDS011;19112;51.076;3.706;2023-06-01T09:12:34;35.60;;;14.93;;
32734;SDS011;19112;51.076;3.706;2023-06-01T09:17:43;34.58;;;13.60;;
32734;SDS011;19112;51.076;3.706;2023-06-01T09:20:26;32.47;;;13.63;;
32734;SDS011;19112;51.076;3.706;2023-06-01T09:22:54;37.80;;;16.08;;
32734;SDS011;19112;51.076;3.706;2023-06-01T09:25:24;40.22;;;14.73;;
32734;SDS011;19112;51.076;3.706;2023-06-01T09:27:56;31.10;;;12.98;;
32734;SDS011;19112;51.076;3.706;2023-06-01T09:30:24;30.45;;;13.20;;
32734;SDS011;19112;51.076;3.706;2023-06-01T09:33:12;32.30;;;12.77;;
32734;SDS011;19112;51.076;3.706;2023-06-01T09:38:11;40.95;;;16.45;;
32734;SDS011;19112;51.076;3.706;2023-06-01T09:41:01;37.42;;;16.08;;
32734;SDS011;19112;51.076;3.706;2023-06-01T09:43:28;35.78;;;14.15;;
32734;SDS011;19112;51.076;3.706;2023-06-01T09:48:38;34.40;;;15.07;;
32734;SDS011;19112;51.076;3.706;2023-06-01T09:51:05;28.35;;;13.10;;
32734;SDS011;19112;51.076;3.706;2023-06-01T09:53:54;37.05;;;16.58;;
32734;SDS011;19112;51.076;3.706;2023-06-01T09:56:20;36.40;;;15.00;;
32734;SDS011;19112;51.076;3.706;2023-06-01T09:58:46;43.05;;;14.98;;
32734;SDS011;19112;51.076;3.706;2023-06-01T10:01:14;36.42;;;14.18;;
32734;SDS011;19112;51.076;3.706;2023-06-01T10:03:41;35.38;;;14.05;;
32734;SDS011;19112;51.076;3.706;2023-06-01T10:06:10;31.08;;;13.38;;
32734;SDS011;19112;51.076;3.706;2023-06-01T10:08:37;29.92;;;13.82;;
32734;SDS011;19112;51.076;3.706;2023-06-01T10:11:03;34.28;;;13.75;;
32734;SDS011;19112;51.076;3.706;2023-06-01T10:13:29;45.28;;;15.00;;
32734;SDS011;19112;51.076;3.706;2023-06-01T10:15:56;34.08;;;15.13;;
32734;SDS011;19112;51.076;3.706;2023-06-01T10:18:22;33.10;;;14.25;;
32734;SDS011;19112;51.076;3.706;2023-06-01T10:20:48;31.70;;;15.85;;
32734;SDS011;19112;51.076;3.706;2023-06-01T10:23:14;32.38;;;15.63;;
32734;SDS011;19112;51.076;3.706;2023-06-01T10:25:41;36.10;;;16.02;;
32734;SDS011;19112;51.076;3.706;2023-06-01T10:28:14;35.08;;;16.70;;
32734;SDS011;19112;51.076;3.706;2023-06-01T10:30:42;34.95;;;16.60;;
32734;SDS011;19112;51.076;3.706;2023-06-01T10:33:08;33.28;;;16.67;;
32734;SDS011;19112;51.076;3.706;2023-06-01T10:40:45;35.50;;;16.10;;
32734;SDS011;19112;51.076;3.706;2023-06-01T10:46:01;33.35;;;16.08;;
32734;SDS011;19112;51.076;3.706;2023-06-01T10:51:21;35.28;;;15.57;;
32734;SDS011;19112;51.076;3.706;2023-06-01T10:53:49;30.60;;;15.82;;
32734;SDS011;19112;51.076;3.706;2023-06-01T11:01:34;40.67;;;15.55;;
32734;SDS011;19112;51.076;3.706;2023-06-01T11:04:02;35.67;;;16.00;;
32734;SDS011;19112;51.076;3.706;2023-06-01T11:06:31;32.20;;;14.18;;
32734;SDS011;19112;51.076;3.706;2023-06-01T11:12:12;32.70;;;14.65;;
32734;SDS011;19112;51.076;3.706;2023-06-01T11:14:24;34.85;;;15.57;;
32734;SDS011;19112;51.076;3.706;2023-06-01T11:16:52;34.92;;;15.15;;
32734;SDS011;19112;51.076;3.706;2023-06-01T11:19:23;32.10;;;14.40;;
32734;SDS011;19112;51.076;3.706;2023-06-01T11:21:54;29.65;;;15.60;;
32734;SDS011;19112;51.076;3.706;2023-06-01T11:24:25;35.63;;;17.33;;
32734;SDS011;19112;51.076;3.706;2023-06-01T11:27:10;34.47;;;15.30;;
32734;SDS011;19112;51.076;3.706;2023-06-01T11:29:36;28.70;;;13.50;;
32734;SDS011;19112;51.076;3.706;2023-06-01T11:32:03;31.02;;;15.43;;
32734;SDS011;19112;51.076;3.706;2023-06-01T11:34:32;32.10;;;15.05;;
32734;SDS011;19112;51.076;3.706;2023-06-01T11:37:04;35.95;;;15.57;;
32734;SDS011;19112;51.076;3.706;2023-06-01T11:39:37;33.50;;;16.13;;
32734;SDS011;19112;51.076;3.706;2023-06-01T11:42:04;32.08;;;15.30;;
32734;SDS011;19112;51.076;3.706;2023-06-01T11:44:36;43.15;;;15.35;;
32734;SDS011;19112;51.076;3.706;2023-06-01T11:47:09;33.92;;;14.50;;
32734;SDS011;19112;51.076;3.706;2023-06-01T11:49:44;31.02;;;14.35;;
32734;SDS011;19112;51.076;3.706;2023-06-01T11:52:15;34.08;;;14.73;;
32734;SDS011;19112;51.076;3.706;2023-06-01T11:54:41;32.90;;;15.85;;
32734;SDS011;19112;51.076;3.706;2023-06-01T11:57:07;41.88;;;16.90;;
32734;SDS011;19112;51.076;3.706;2023-06-01T11:59:38;34.33;;;15.88;;
32734;SDS011;19112;51.076;3.706;2023-06-01T12:02:19;33.70;;;16.25;;
32734;SDS011;19112;51.076;3.706;2023-06-01T12:07:31;36.55;;;17.50;;
32734;SDS011;19112;51.076;3.706;2023-06-01T12:10:09;36.45;;;18.27;;
32734;SDS011;19112;51.076;3.706;2023-06-01T12:12:38;36.13;;;19.73;;
32734;SDS011;19112;51.076;3.706;2023-06-01T12:15:05;35.78;;;17.58;;
32734;SDS011;19112;51.076;3.706;2023-06-01T12:22:58;32.28;;;17.98;;
32734;SDS011;19112;51.076;3.706;2023-06-01T12:25:26;37.83;;;17.38;;
32734;SDS011;19112;51.076;3.706;2023-06-01T12:28:02;34.67;;;17.70;;
32734;SDS011;19112;51.076;3.706;2023-06-01T12:30:30;36.65;;;17.65;;
32734;SDS011;19112;51.076;3.706;2023-06-01T12:32:56;45.58;;;17.48;;
32734;SDS011;19112;51.076;3.706;2023-06-01T12:35:22;35.05;;;17.25;;
32734;SDS011;19112;51.076;3.706;2023-06-01T12:40:35;37.05;;;17.40;;
32734;SDS011;19112;51.076;3.706;2023-06-01T12:43:02;31.58;;;14.77;;
32734;SDS011;19112;51.076;3.706;2023-06-01T12:45:36;44.42;;;17.35;;
32734;SDS011;19112;51.076;3.706;2023-06-01T12:48:05;31.70;;;15.65;;
32734;SDS011;19112;51.076;3.706;2023-06-01T12:50:31;32.63;;;14.68;;
32734;SDS011;19112;51.076;3.706;2023-06-01T12:52:57;37.85;;;15.43;;
32734;SDS011;19112;51.076;3.706;2023-06-01T12:55:23;32.45;;;15.15;;
32734;SDS011;19112;51.076;3.706;2023-06-01T12:57:52;32.80;;;15.90;;
32734;SDS011;19112;51.076;3.706;2023-06-01T13:00:19;31.95;;;15.18;;
32734;SDS011;19112;51.076;3.706;2023-06-01T13:02:46;38.38;;;18.10;;
32734;SDS011;19112;51.076;3.706;2023-06-01T13:05:14;32.13;;;14.50;;
32734;SDS011;19112;51.076;3.706;2023-06-01T13:07:42;31.75;;;14.25;;
32734;SDS011;19112;51.076;3.706;2023-06-01T13:10:10;29.23;;;12.90;;
32734;SDS011;19112;51.076;3.706;2023-06-01T13:12:36;24.50;;;12.05;;
32734;SDS011;19112;51.076;3.706;2023-06-01T13:15:02;34.17;;;13.85;;
32734;SDS011;19112;51.076;3.706;2023-06-01T13:17:29;30.23;;;13.10;;
32734;SDS011;19112;51.076;3.706;2023-06-01T13:19:54;30.67;;;13.98;;
32734;SDS011;19112;51.076;3.706;2023-06-01T13:22:20;29.02;;;13.10;;
32734;SDS011;19112;51.076;3.706;2023-06-01T13:24:47;26.80;;;12.25;;
32734;SDS011;19112;51.076;3.706;2023-06-01T13:27:13;27.58;;;11.30;;
32734;SDS011;19112;51.076;3.706;2023-06-01T13:29:39;26.45;;;10.48;;
32734;SDS011;19112;51.076;3.706;2023-06-01T13:32:05;25.40;;;9.93;;
32734;SDS011;19112;51.076;3.706;2023-06-01T13:34:31;23.13;;;9.25;;
32734;SDS011;19112;51.076;3.706;2023-06-01T13:36:58;31.15;;;9.90;;
32734;SDS011;19112;51.076;3.706;2023-06-01T13:39:24;26.77;;;9.50;;
32734;SDS011;19112;51.076;3.706;2023-06-01T13:41:50;28.75;;;9.80;;
32734;SDS011;19112;51.076;3.706;2023-06-01T13:44:16;25.17;;;9.38;;
32734;SDS011;19112;51.076;3.706;2023-06-01T13:46:43;28.55;;;9.30;;
32734;SDS011;19112;51.076;3.706;2023-06-01T13:49:09;26.73;;;9.23;;
32734;SDS011;19112;51.076;3.706;2023-06-01T13:51:35;27.77;;;9.50;;
32734;SDS011;19112;51.076;3.706;2023-06-01T13:54:03;23.20;;;10.05;;
32734;SDS011;19112;51.076;3.706;2023-06-01T13:56:30;24.75;;;9.70;;
32734;SDS011;19112;51.076;3.706;2023-06-01T13:58:56;21.77;;;8.88;;
32734;SDS011;19112;51.076;3.706;2023-06-01T14:01:22;28.63;;;9.30;;
32734;SDS011;19112;51.076;3.706;2023-06-01T14:03:48;24.65;;;8.57;;
32734;SDS011;19112;51.076;3.706;2023-06-01T14:06:14;22.17;;;8.82;;
32734;SDS011;19112;51.076;3.706;2023-06-01T14:08:41;29.00;;;10.25;;
32734;SDS011;19112;51.076;3.706;2023-06-01T14:11:07;26.88;;;8.90;;
32734;SDS011;19112;51.076;3.706;2023-06-01T14:13:35;27.23;;;8.88;;
32734;SDS011;19112;51.076;3.706;2023-06-01T14:16:01;26.95;;;8.15;;
32734;SDS011;19112;51.076;3.706;2023-06-01T14:18:27;27.35;;;8.65;;
32734;SDS011;19112;51.076;3.706;2023-06-01T14:20:53;24.00;;;8.48;;
32734;SDS011;19112;51.076;3.706;2023-06-01T14:23:19;28.50;;;9.18;;
32734;SDS011;19112;51.076;3.706;2023-06-01T14:25:45;22.25;;;7.68;;
32734;SDS011;19112;51.076;3.706;2023-06-01T14:28:11;24.65;;;8.68;;
32734;SDS011;19112;51.076;3.706;2023-06-01T14:30:37;23.92;;;8.18;;
32734;SDS011;19112;51.076;3.706;2023-06-01T14:33:02;19.20;;;7.03;;
32734;SDS011;19112;51.076;3.706;2023-06-01T14:35:28;23.40;;;7.50;;
32734;SDS011;19112;51.076;3.706;2023-06-01T14:37:54;24.35;;;7.32;;
32734;SDS011;19112;51.076;3.706;2023-06-01T14:40:20;23.42;;;8.13;;
32734;SDS011;19112;51.076;3.706;2023-06-01T14:42:46;22.95;;;7.57;;
32734;SDS011;19112;51.076;3.706;2023-06-01T14:45:12;17.20;;;6.38;;
32734;SDS011;19112;51.076;3.706;2023-06-01T14:47:38;24.75;;;7.93;;
32734;SDS011;19112;51.076;3.706;2023-06-01T14:50:07;24.35;;;6.88;;
32734;SDS011;19112;51.076;3.706;2023-06-01T14:52:34;20.42;;;6.00;;
32734;SDS011;19112;51.076;3.706;2023-06-01T14:55:00;24.25;;;7.13;;
32734;SDS011;19112;51.076;3.706;2023-06-01T14:57:26;20.00;;;6.55;;
32734;SDS011;19112;51.076;3.706;2023-06-01T14:59:51;17.35;;;5.97;;
32734;SDS011;19112;51.076;3.706;2023-06-01T15:02:18;18.33;;;5.70;;
32734;SDS011;19112;51.076;3.706;2023-06-01T15:04:44;17.83;;;5.68;;
32734;SDS011;19112;51.076;3.706;2023-06-01T15:07:10;18.98;;;6.03;;
32734;SDS011;19112;51.076;3.706;2023-06-01T15:09:36;22.83;;;6.63;;
32734;SDS011;19112;51.076;3.706;2023-06-01T15:12:02;22.75;;;6.32;;
32734;SDS011;19112;51.076;3.706;2023-06-01T15:14:28;19.67;;;6.30;;
32734;SDS011;19112;51.076;3.706;2023-06-01T15:16:54;16.63;;;5.88;;
32734;SDS011;19112;51.076;3.706;2023-06-01T15:19:20;18.88;;;5.45;;
32734;SDS011;19112;51.076;3.706;2023-06-01T15:21:46;17.58;;;5.60;;